sensor_id;sensor_type;location;lat;lon;timestamp;P1;durP1;ratioP1;P2;durP2;ratioP2
74074;SDS011;62428;51.412;5.432;2023-02-23T00:01:57;63.15;;;25.52;;
74074;SDS011;62428;51.412;5.432;2023-02-23T00:04:30;62.72;;;25.00;;
74074;SDS011;62428;51.412;5.432;2023-02-23T00:06:56;63.25;;;24.98;;
74074;SDS011;62428;51.412;5.432;2023-02-23T00:09:22;64.47;;;25.23;;
74074;SDS011;62428;51.412;5.432;2023-02-23T00:11:52;61.00;;;24.90;;
74074;SDS011;62428;51.412;5.432;2023-02-23T00:14:19;61.50;;;25.25;;
74074;SDS011;62428;51.412;5.432;2023-02-23T00:16:48;61.50;;;25.27;;
74074;SDS011;62428;51.412;5.432;2023-02-23T00:19:13;65.72;;;24.52;;
74074;SDS011;62428;51.412;5.432;2023-02-23T00:21:39;61.23;;;24.27;;
74074;SDS011;62428;51.412;5.432;2023-02-23T00:24:07;60.85;;;24.63;;
74074;SDS011;62428;51.412;5.432;2023-02-23T00:26:35;60.70;;;23.93;;
74074;SDS011;62428;51.412;5.432;2023-02-23T00:29:04;61.22;;;24.50;;
74074;SDS011;62428;51.412;5.432;2023-02-23T00:31:32;66.82;;;24.70;;
74074;SDS011;62428;51.412;5.432;2023-02-23T00:34:02;61.25;;;24.05;;
74074;SDS011;62428;51.412;5.432;2023-02-23T00:36:32;65.78;;;26.23;;
74074;SDS011;62428;51.412;5.432;2023-02-23T00:38:59;63.50;;;24.77;;
74074;SDS011;62428;51.412;5.432;2023-02-23T00:41:28;62.30;;;25.75;;
74074;SDS011;62428;51.412;5.432;2023-02-23T00:43:57;63.45;;;25.65;;
74074;SDS011;62428;51.412;5.432;2023-02-23T00:46:26;65.53;;;25.08;;
74074;SDS011;62428;51.412;5.432;2023-02-23T00:48:54;63.15;;;25.58;;
74074;SDS011;62428;51.412;5.432;2023-02-23T00:51:21;63.90;;;25.27;;
74074;SDS011;62428;51.412;5.432;2023-02-23T00:53:48;61.83;;;25.23;;
74074;SDS011;62428;51.412;5.432;2023-02-23T00:56:14;69.60;;;27.27;;
74074;SDS011;62428;51.412;5.432;2023-02-23T00:58:40;59.50;;;24.95;;
74074;SDS011;62428;51.412;5.432;2023-02-23T01:01:07;63.05;;;25.08;;
74074;SDS011;62428;51.412;5.432;2023-02-23T01:03:34;67.15;;;26.30;;
74074;SDS011;62428;51.412;5.432;2023-02-23T01:06:01;63.00;;;26.60;;
74074;SDS011;62428;51.412;5.432;2023-02-23T01:08:30;59.70;;;25.07;;
74074;SDS011;62428;51.412;5.432;2023-02-23T01:10:56;63.05;;;25.58;;
74074;SDS011;62428;51.412;5.432;2023-02-23T01:13:23;63.58;;;24.65;;
74074;SDS011;62428;51.412;5.432;2023-02-23T01:15:49;65.78;;;25.73;;
74074;SDS011;62428;51.412;5.432;2023-02-23T01:18:16;62.65;;;26.27;;
74074;SDS011;62428;51.412;5.432;2023-02-23T01:20:43;73.30;;;27.17;;
74074;SDS011;62428;51.412;5.432;2023-02-23T01:23:10;74.13;;;26.38;;
74074;SDS011;62428;51.412;5.432;2023-02-23T01:25:36;71.63;;;26.88;;
74074;SDS011;62428;51.412;5.432;2023-02-23T01:28:02;74.43;;;27.30;;
74074;SDS011;62428;51.412;5.432;2023-02-23T01:30:28;71.47;;;27.73;;
74074;SDS011;62428;51.412;5.432;2023-02-23T01:32:53;71.23;;;27.10;;
74074;SDS011;62428;51.412;5.432;2023-02-23T01:35:19;74.77;;;27.40;;
74074;SDS011;62428;51.412;5.432;2023-02-23T01:37:44;70.63;;;26.80;;
74074;SDS011;62428;51.412;5.432;2023-02-23T01:40:11;67.27;;;26.30;;
74074;SDS011;62428;51.412;5.432;2023-02-23T01:42:40;73.88;;;26.13;;
74074;SDS011;62428;51.412;5.432;2023-02-23T01:45:51;73.53;;;27.77;;
74074;SDS011;62428;51.412;5.432;2023-02-23T01:51:03;74.97;;;28.85;;
74074;SDS011;62428;51.412;5.432;2023-02-23T01:53:35;75.03;;;29.63;;
74074;SDS011;62428;51.412;5.432;2023-02-23T01:56:05;76.13;;;29.65;;
74074;SDS011;62428;51.412;5.432;2023-02-23T01:58:35;71.05;;;27.75;;
74074;SDS011;62428;51.412;5.432;2023-02-23T02:01:05;67.38;;;26.38;;
74074;SDS011;62428;51.412;5.432;2023-02-23T02:03:34;75.05;;;28.08;;
74074;SDS011;62428;51.412;5.432;2023-02-23T02:06:03;69.30;;;25.93;;
74074;SDS011;62428;51.412;5.432;2023-02-23T02:08:33;72.43;;;27.52;;
74074;SDS011;62428;51.412;5.432;2023-02-23T02:11:09;76.00;;;27.17;;
74074;SDS011;62428;51.412;5.432;2023-02-23T02:13:58;71.22;;;26.77;;
74074;SDS011;62428;51.412;5.432;2023-02-23T02:33:44;69.70;;;26.03;;
74074;SDS011;62428;51.412;5.432;2023-02-23T02:39:10;88.15;;;28.60;;
74074;SDS011;62428;51.412;5.432;2023-02-23T02:41:50;76.68;;;27.30;;
74074;SDS011;62428;51.412;5.432;2023-02-23T02:44:29;84.50;;;27.80;;
74074;SDS011;62428;51.412;5.432;2023-02-23T02:47:10;80.57;;;26.97;;
74074;SDS011;62428;51.412;5.432;2023-02-23T02:49:46;86.72;;;27.38;;
74074;SDS011;62428;51.412;5.432;2023-02-23T02:52:28;80.47;;;26.38;;
74074;SDS011;62428;51.412;5.432;2023-02-23T02:55:08;72.45;;;25.50;;
74074;SDS011;62428;51.412;5.432;2023-02-23T02:57:48;80.07;;;25.30;;
74074;SDS011;62428;51.412;5.432;2023-02-23T03:00:22;76.33;;;23.63;;
74074;SDS011;62428;51.412;5.432;2023-02-23T03:03:28;73.43;;;24.63;;
74074;SDS011;62428;51.412;5.432;2023-02-23T03:06:19;70.30;;;24.95;;
74074;SDS011;62428;51.412;5.432;2023-02-23T03:21:24;74.40;;;25.58;;
74074;SDS011;62428;51.412;5.432;2023-02-23T03:27:06;75.30;;;24.52;;
74074;SDS011;62428;51.412;5.432;2023-02-23T03:30:27;73.30;;;23.37;;
74074;SDS011;62428;51.412;5.432;2023-02-23T03:33:50;76.00;;;24.75;;
74074;SDS011;62428;51.412;5.432;2023-02-23T03:36:42;75.45;;;24.92;;
74074;SDS011;62428;51.412;5.432;2023-02-23T03:39:37;75.55;;;24.92;;
74074;SDS011;62428;51.412;5.432;2023-02-23T03:42:27;78.85;;;25.13;;
74074;SDS011;62428;51.412;5.432;2023-02-23T03:45:15;80.13;;;25.63;;
74074;SDS011;62428;51.412;5.432;2023-02-23T03:48:02;80.88;;;26.13;;
74074;SDS011;62428;51.412;5.432;2023-02-23T03:50:53;82.78;;;26.00;;
74074;SDS011;62428;51.412;5.432;2023-02-23T03:56:33;80.05;;;26.30;;
74074;SDS011;62428;51.412;5.432;2023-02-23T03:59:21;79.50;;;25.87;;
74074;SDS011;62428;51.412;5.432;2023-02-23T04:02:09;77.43;;;25.13;;
74074;SDS011;62428;51.412;5.432;2023-02-23T04:04:55;77.80;;;24.75;;
74074;SDS011;62428;51.412;5.432;2023-02-23T04:07:45;79.43;;;24.38;;
74074;SDS011;62428;51.412;5.432;2023-02-23T04:10:31;83.80;;;27.15;;
74074;SDS011;62428;51.412;5.432;2023-02-23T04:13:18;82.37;;;25.43;;
74074;SDS011;62428;51.412;5.432;2023-02-23T04:15:50;77.30;;;24.42;;
74074;SDS011;62428;51.412;5.432;2023-02-23T04:18:20;80.25;;;26.17;;
74074;SDS011;62428;51.412;5.432;2023-02-23T04:20:48;71.47;;;24.00;;
74074;SDS011;62428;51.412;5.432;2023-02-23T04:23:14;83.37;;;26.83;;
74074;SDS011;62428;51.412;5.432;2023-02-23T04:25:39;88.50;;;26.87;;
74074;SDS011;62428;51.412;5.432;2023-02-23T04:28:05;86.25;;;26.80;;
74074;SDS011;62428;51.412;5.432;2023-02-23T04:30:30;84.63;;;25.83;;
74074;SDS011;62428;51.412;5.432;2023-02-23T04:32:56;80.20;;;26.83;;
74074;SDS011;62428;51.412;5.432;2023-02-23T04:35:23;76.95;;;25.83;;
74074;SDS011;62428;51.412;5.432;2023-02-23T04:37:49;82.22;;;25.73;;
74074;SDS011;62428;51.412;5.432;2023-02-23T04:40:14;84.00;;;25.47;;
74074;SDS011;62428;51.412;5.432;2023-02-23T04:42:40;82.50;;;26.43;;
74074;SDS011;62428;51.412;5.432;2023-02-23T04:45:06;87.75;;;27.10;;
74074;SDS011;62428;51.412;5.432;2023-02-23T04:47:32;83.57;;;26.08;;
74074;SDS011;62428;51.412;5.432;2023-02-23T04:49:57;83.43;;;25.60;;
74074;SDS011;62428;51.412;5.432;2023-02-23T04:52:23;83.73;;;26.97;;
74074;SDS011;62428;51.412;5.432;2023-02-23T04:54:48;83.53;;;25.83;;
74074;SDS011;62428;51.412;5.432;2023-02-23T04:57:13;84.77;;;28.87;;
74074;SDS011;62428;51.412;5.432;2023-02-23T04:59:39;79.57;;;26.30;;
74074;SDS011;62428;51.412;5.432;2023-02-23T05:02:04;78.22;;;26.02;;
74074;SDS011;62428;51.412;5.432;2023-02-23T05:04:30;77.00;;;25.05;;
74074;SDS011;62428;51.412;5.432;2023-02-23T05:06:56;79.15;;;25.35;;
74074;SDS011;62428;51.412;5.432;2023-02-23T05:09:22;78.73;;;25.63;;
74074;SDS011;62428;51.412;5.432;2023-02-23T05:11:47;80.07;;;26.33;;
74074;SDS011;62428;51.412;5.432;2023-02-23T05:14:12;76.63;;;26.37;;
74074;SDS011;62428;51.412;5.432;2023-02-23T05:16:38;76.07;;;25.93;;
74074;SDS011;62428;51.412;5.432;2023-02-23T05:19:03;80.50;;;24.80;;
74074;SDS011;62428;51.412;5.432;2023-02-23T05:21:29;81.50;;;26.30;;
74074;SDS011;62428;51.412;5.432;2023-02-23T05:23:54;76.43;;;24.77;;
74074;SDS011;62428;51.412;5.432;2023-02-23T05:26:21;80.35;;;25.65;;
74074;SDS011;62428;51.412;5.432;2023-02-23T05:28:46;72.13;;;24.33;;
74074;SDS011;62428;51.412;5.432;2023-02-23T05:31:12;67.53;;;22.92;;
74074;SDS011;62428;51.412;5.432;2023-02-23T05:33:38;82.00;;;25.63;;
74074;SDS011;62428;51.412;5.432;2023-02-23T05:36:07;70.30;;;23.42;;
74074;SDS011;62428;51.412;5.432;2023-02-23T05:38:34;78.03;;;24.60;;
74074;SDS011;62428;51.412;5.432;2023-02-23T05:41:03;77.82;;;25.25;;
74074;SDS011;62428;51.412;5.432;2023-02-23T05:43:39;70.57;;;23.00;;
74074;SDS011;62428;51.412;5.432;2023-02-23T05:46:08;73.38;;;23.20;;
74074;SDS011;62428;51.412;5.432;2023-02-23T05:48:34;74.80;;;24.50;;
74074;SDS011;62428;51.412;5.432;2023-02-23T05:51:00;69.90;;;24.70;;
74074;SDS011;62428;51.412;5.432;2023-02-23T05:53:26;74.82;;;25.02;;
74074;SDS011;62428;51.412;5.432;2023-02-23T05:55:52;73.70;;;23.60;;
74074;SDS011;62428;51.412;5.432;2023-02-23T05:58:17;73.93;;;23.40;;
74074;SDS011;62428;51.412;5.432;2023-02-23T06:00:42;73.37;;;24.50;;
74074;SDS011;62428;51.412;5.432;2023-02-23T06:03:08;73.88;;;23.45;;
74074;SDS011;62428;51.412;5.432;2023-02-23T06:05:33;69.80;;;23.00;;
74074;SDS011;62428;51.412;5.432;2023-02-23T06:07:58;69.60;;;23.07;;
74074;SDS011;62428;51.412;5.432;2023-02-23T06:10:24;74.13;;;24.83;;
74074;SDS011;62428;51.412;5.432;2023-02-23T06:12:49;73.67;;;24.23;;
74074;SDS011;62428;51.412;5.432;2023-02-23T06:15:14;75.03;;;24.80;;
74074;SDS011;62428;51.412;5.432;2023-02-23T06:17:40;73.80;;;23.77;;
74074;SDS011;62428;51.412;5.432;2023-02-23T06:20:05;72.93;;;24.33;;
74074;SDS011;62428;51.412;5.432;2023-02-23T06:22:31;70.57;;;23.00;;
74074;SDS011;62428;51.412;5.432;2023-02-23T06:24:56;71.07;;;23.60;;
74074;SDS011;62428;51.412;5.432;2023-02-23T06:27:22;67.63;;;22.60;;
74074;SDS011;62428;51.412;5.432;2023-02-23T06:29:47;65.50;;;22.50;;
74074;SDS011;62428;51.412;5.432;2023-02-23T06:32:13;70.27;;;23.13;;
74074;SDS011;62428;51.412;5.432;2023-02-23T06:34:38;61.87;;;21.77;;
74074;SDS011;62428;51.412;5.432;2023-02-23T06:37:04;71.18;;;23.50;;
74074;SDS011;62428;51.412;5.432;2023-02-23T06:39:30;71.23;;;21.37;;
74074;SDS011;62428;51.412;5.432;2023-02-23T06:41:56;70.07;;;22.10;;
74074;SDS011;62428;51.412;5.432;2023-02-23T06:44:21;66.77;;;21.63;;
74074;SDS011;62428;51.412;5.432;2023-02-23T06:46:47;72.80;;;21.80;;
74074;SDS011;62428;51.412;5.432;2023-02-23T06:49:12;66.53;;;20.83;;
74074;SDS011;62428;51.412;5.432;2023-02-23T06:51:38;64.70;;;22.33;;
74074;SDS011;62428;51.412;5.432;2023-02-23T06:54:03;61.83;;;20.83;;
74074;SDS011;62428;51.412;5.432;2023-02-23T06:56:28;61.23;;;20.30;;
74074;SDS011;62428;51.412;5.432;2023-02-23T06:58:54;62.88;;;20.42;;
74074;SDS011;62428;51.412;5.432;2023-02-23T07:01:19;64.37;;;20.37;;
74074;SDS011;62428;51.412;5.432;2023-02-23T07:03:45;65.87;;;21.37;;
74074;SDS011;62428;51.412;5.432;2023-02-23T07:06:11;64.80;;;20.83;;
74074;SDS011;62428;51.412;5.432;2023-02-23T07:08:36;66.73;;;22.13;;
74074;SDS011;62428;51.412;5.432;2023-02-23T07:11:10;63.30;;;21.35;;
74074;SDS011;62428;51.412;5.432;2023-02-23T07:13:37;69.03;;;23.08;;
74074;SDS011;62428;51.412;5.432;2023-02-23T07:16:03;68.43;;;22.03;;
74074;SDS011;62428;51.412;5.432;2023-02-23T07:18:29;73.68;;;24.35;;
74074;SDS011;62428;51.412;5.432;2023-02-23T07:20:54;72.00;;;23.40;;
74074;SDS011;62428;51.412;5.432;2023-02-23T07:23:19;71.20;;;22.83;;
74074;SDS011;62428;51.412;5.432;2023-02-23T07:25:46;72.85;;;23.63;;
74074;SDS011;62428;51.412;5.432;2023-02-23T07:28:14;75.88;;;24.60;;
74074;SDS011;62428;51.412;5.432;2023-02-23T07:30:40;72.27;;;23.53;;
74074;SDS011;62428;51.412;5.432;2023-02-23T07:33:05;69.27;;;24.70;;
74074;SDS011;62428;51.412;5.432;2023-02-23T07:35:31;74.05;;;23.30;;
74074;SDS011;62428;51.412;5.432;2023-02-23T07:37:56;74.20;;;23.07;;
74074;SDS011;62428;51.412;5.432;2023-02-23T07:40:22;76.97;;;24.00;;
74074;SDS011;62428;51.412;5.432;2023-02-23T07:42:49;73.25;;;23.73;;
74074;SDS011;62428;51.412;5.432;2023-02-23T07:45:14;75.50;;;22.70;;
74074;SDS011;62428;51.412;5.432;2023-02-23T07:47:41;75.47;;;23.90;;
74074;SDS011;62428;51.412;5.432;2023-02-23T07:50:07;74.13;;;23.40;;
74074;SDS011;62428;51.412;5.432;2023-02-23T07:52:34;77.05;;;24.55;;
74074;SDS011;62428;51.412;5.432;2023-02-23T07:55:03;73.88;;;24.25;;
74074;SDS011;62428;51.412;5.432;2023-02-23T07:57:29;72.70;;;24.20;;
74074;SDS011;62428;51.412;5.432;2023-02-23T07:59:55;73.15;;;23.88;;
74074;SDS011;62428;51.412;5.432;2023-02-23T08:02:20;71.37;;;23.17;;
74074;SDS011;62428;51.412;5.432;2023-02-23T08:04:45;69.90;;;23.63;;
74074;SDS011;62428;51.412;5.432;2023-02-23T08:07:12;77.95;;;24.25;;
74074;SDS011;62428;51.412;5.432;2023-02-23T08:09:37;72.40;;;22.80;;
74074;SDS011;62428;51.412;5.432;2023-02-23T08:12:02;70.37;;;22.40;;
74074;SDS011;62428;51.412;5.432;2023-02-23T08:14:28;76.97;;;24.17;;
74074;SDS011;62428;51.412;5.432;2023-02-23T08:16:53;74.05;;;23.58;;
74074;SDS011;62428;51.412;5.432;2023-02-23T08:19:19;69.53;;;21.42;;
74074;SDS011;62428;51.412;5.432;2023-02-23T08:21:48;73.97;;;23.40;;
74074;SDS011;62428;51.412;5.432;2023-02-23T08:24:14;69.00;;;22.00;;
74074;SDS011;62428;51.412;5.432;2023-02-23T08:26:40;75.05;;;22.92;;
74074;SDS011;62428;51.412;5.432;2023-02-23T08:29:05;77.53;;;24.23;;
74074;SDS011;62428;51.412;5.432;2023-02-23T08:31:31;81.82;;;24.08;;
74074;SDS011;62428;51.412;5.432;2023-02-23T08:33:57;81.00;;;24.60;;
74074;SDS011;62428;51.412;5.432;2023-02-23T08:36:22;73.07;;;22.63;;
74074;SDS011;62428;51.412;5.432;2023-02-23T08:38:47;71.00;;;22.38;;
74074;SDS011;62428;51.412;5.432;2023-02-23T08:41:13;75.23;;;22.73;;
74074;SDS011;62428;51.412;5.432;2023-02-23T08:43:39;74.47;;;23.10;;
74074;SDS011;62428;51.412;5.432;2023-02-23T08:46:04;76.03;;;22.40;;
74074;SDS011;62428;51.412;5.432;2023-02-23T08:48:31;74.50;;;22.88;;
74074;SDS011;62428;51.412;5.432;2023-02-23T08:50:57;73.72;;;22.08;;
74074;SDS011;62428;51.412;5.432;2023-02-23T08:53:24;72.25;;;22.48;;
74074;SDS011;62428;51.412;5.432;2023-02-23T08:55:54;71.13;;;21.52;;
74074;SDS011;62428;51.412;5.432;2023-02-23T08:58:24;74.05;;;22.63;;
74074;SDS011;62428;51.412;5.432;2023-02-23T09:00:50;78.23;;;22.93;;
74074;SDS011;62428;51.412;5.432;2023-02-23T09:03:15;71.93;;;22.23;;
74074;SDS011;62428;51.412;5.432;2023-02-23T09:05:41;78.00;;;23.02;;
74074;SDS011;62428;51.412;5.432;2023-02-23T09:08:07;73.40;;;23.20;;
74074;SDS011;62428;51.412;5.432;2023-02-23T09:10:32;71.63;;;21.93;;
74074;SDS011;62428;51.412;5.432;2023-02-23T09:12:57;63.67;;;20.77;;
74074;SDS011;62428;51.412;5.432;2023-02-23T09:15:23;73.47;;;23.73;;
74074;SDS011;62428;51.412;5.432;2023-02-23T09:17:48;71.03;;;22.23;;
74074;SDS011;62428;51.412;5.432;2023-02-23T09:20:14;73.37;;;22.33;;
74074;SDS011;62428;51.412;5.432;2023-02-23T09:22:41;69.72;;;21.08;;
74074;SDS011;62428;51.412;5.432;2023-02-23T09:25:13;72.05;;;22.88;;
74074;SDS011;62428;51.412;5.432;2023-02-23T09:27:42;70.63;;;20.93;;
74074;SDS011;62428;51.412;5.432;2023-02-23T09:30:08;70.07;;;22.58;;
74074;SDS011;62428;51.412;5.432;2023-02-23T09:32:34;70.38;;;21.98;;
74074;SDS011;62428;51.412;5.432;2023-02-23T09:35:00;72.88;;;22.33;;
74074;SDS011;62428;51.412;5.432;2023-02-23T09:37:25;71.23;;;22.00;;
74074;SDS011;62428;51.412;5.432;2023-02-23T09:39:50;72.53;;;22.33;;
74074;SDS011;62428;51.412;5.432;2023-02-23T09:44:52;70.68;;;22.00;;
74074;SDS011;62428;51.412;5.432;2023-02-23T09:50:11;70.43;;;22.17;;
74074;SDS011;62428;51.412;5.432;2023-02-23T09:52:41;75.88;;;23.52;;
74074;SDS011;62428;51.412;5.432;2023-02-23T09:55:11;74.35;;;22.90;;
74074;SDS011;62428;51.412;5.432;2023-02-23T09:57:39;75.00;;;23.45;;
74074;SDS011;62428;51.412;5.432;2023-02-23T10:02:49;74.37;;;22.47;;
74074;SDS011;62428;51.412;5.432;2023-02-23T10:05:18;70.15;;;22.85;;
74074;SDS011;62428;51.412;5.432;2023-02-23T10:07:57;67.82;;;22.63;;
74074;SDS011;62428;51.412;5.432;2023-02-23T10:11:11;67.60;;;22.00;;
74074;SDS011;62428;51.412;5.432;2023-02-23T10:13:33;70.90;;;22.95;;
74074;SDS011;62428;51.412;5.432;2023-02-23T10:22:35;66.47;;;21.90;;
74074;SDS011;62428;51.412;5.432;2023-02-23T10:25:03;61.33;;;20.38;;
74074;SDS011;62428;51.412;5.432;2023-02-23T10:27:35;62.38;;;22.23;;
74074;SDS011;62428;51.412;5.432;2023-02-23T10:30:12;58.33;;;20.33;;
74074;SDS011;62428;51.412;5.432;2023-02-23T10:35:41;50.95;;;18.80;;
74074;SDS011;62428;51.412;5.432;2023-02-23T10:38:07;54.95;;;18.27;;
74074;SDS011;62428;51.412;5.432;2023-02-23T10:40:40;49.75;;;17.02;;
74074;SDS011;62428;51.412;5.432;2023-02-23T10:43:08;48.33;;;18.30;;
74074;SDS011;62428;51.412;5.432;2023-02-23T10:45:46;51.63;;;17.25;;
74074;SDS011;62428;51.412;5.432;2023-02-23T10:48:18;52.90;;;19.30;;
74074;SDS011;62428;51.412;5.432;2023-02-23T10:50:46;48.10;;;16.65;;
74074;SDS011;62428;51.412;5.432;2023-02-23T10:56:07;53.50;;;18.43;;
74074;SDS011;62428;51.412;5.432;2023-02-23T11:01:10;49.75;;;17.73;;
74074;SDS011;62428;51.412;5.432;2023-02-23T11:03:38;51.63;;;17.98;;
74074;SDS011;62428;51.412;5.432;2023-02-23T11:06:35;50.88;;;18.27;;
74074;SDS011;62428;51.412;5.432;2023-02-23T11:09:23;49.97;;;16.87;;
74074;SDS011;62428;51.412;5.432;2023-02-23T11:11:57;47.35;;;16.65;;
74074;SDS011;62428;51.412;5.432;2023-02-23T11:14:27;47.20;;;17.58;;
74074;SDS011;62428;51.412;5.432;2023-02-23T11:16:54;43.05;;;16.00;;
74074;SDS011;62428;51.412;5.432;2023-02-23T11:21:55;45.73;;;15.63;;
74074;SDS011;62428;51.412;5.432;2023-02-23T11:24:21;41.25;;;15.25;;
74074;SDS011;62428;51.412;5.432;2023-02-23T11:26:50;41.40;;;15.98;;
74074;SDS011;62428;51.412;5.432;2023-02-23T11:29:31;37.30;;;14.45;;
74074;SDS011;62428;51.412;5.432;2023-02-23T11:32:12;46.05;;;16.17;;
74074;SDS011;62428;51.412;5.432;2023-02-23T11:34:41;46.60;;;16.92;;
74074;SDS011;62428;51.412;5.432;2023-02-23T11:39:52;46.67;;;17.23;;
74074;SDS011;62428;51.412;5.432;2023-02-23T11:42:21;47.75;;;17.33;;
74074;SDS011;62428;51.412;5.432;2023-02-23T11:45:00;44.63;;;16.90;;
74074;SDS011;62428;51.412;5.432;2023-02-23T11:47:28;49.80;;;17.67;;
74074;SDS011;62428;51.412;5.432;2023-02-23T11:49:55;49.33;;;18.02;;
74074;SDS011;62428;51.412;5.432;2023-02-23T11:52:22;47.30;;;17.20;;
74074;SDS011;62428;51.412;5.432;2023-02-23T11:54:59;50.85;;;18.75;;
74074;SDS011;62428;51.412;5.432;2023-02-23T11:57:30;52.17;;;18.00;;
74074;SDS011;62428;51.412;5.432;2023-02-23T11:59:59;50.70;;;18.83;;
74074;SDS011;62428;51.412;5.432;2023-02-23T12:02:28;52.45;;;18.73;;
74074;SDS011;62428;51.412;5.432;2023-02-23T12:05:08;50.67;;;17.87;;
74074;SDS011;62428;51.412;5.432;2023-02-23T12:07:45;52.17;;;18.70;;
74074;SDS011;62428;51.412;5.432;2023-02-23T12:10:22;49.95;;;18.17;;
74074;SDS011;62428;51.412;5.432;2023-02-23T12:15:48;50.33;;;18.35;;
74074;SDS011;62428;51.412;5.432;2023-02-23T12:26:54;39.15;;;14.55;;
74074;SDS011;62428;51.412;5.432;2023-02-23T12:38:35;41.38;;;14.68;;
74074;SDS011;62428;51.412;5.432;2023-02-23T12:41:14;40.22;;;13.35;;
74074;SDS011;62428;51.412;5.432;2023-02-23T12:46:49;30.40;;;11.07;;
74074;SDS011;62428;51.412;5.432;2023-02-23T12:54:35;32.90;;;11.47;;
74074;SDS011;62428;51.412;5.432;2023-02-23T12:57:36;33.38;;;13.00;;
74074;SDS011;62428;51.412;5.432;2023-02-23T13:00:24;29.98;;;12.15;;
74074;SDS011;62428;51.412;5.432;2023-02-23T13:03:05;27.23;;;9.63;;
74074;SDS011;62428;51.412;5.432;2023-02-23T13:08:36;24.42;;;8.80;;
74074;SDS011;62428;51.412;5.432;2023-02-23T13:14:04;29.88;;;9.98;;
74074;SDS011;62428;51.412;5.432;2023-02-23T13:16:35;25.67;;;9.70;;
74074;SDS011;62428;51.412;5.432;2023-02-23T13:24:40;32.47;;;10.75;;
74074;SDS011;62428;51.412;5.432;2023-02-23T13:29:44;27.30;;;10.73;;
74074;SDS011;62428;51.412;5.432;2023-02-23T13:32:22;26.05;;;9.55;;
74074;SDS011;62428;51.412;5.432;2023-02-23T13:34:56;25.77;;;9.65;;
74074;SDS011;62428;51.412;5.432;2023-02-23T13:37:42;21.67;;;7.78;;
74074;SDS011;62428;51.412;5.432;2023-02-23T13:46:04;19.83;;;7.50;;
74074;SDS011;62428;51.412;5.432;2023-02-23T13:48:48;19.10;;;7.80;;
74074;SDS011;62428;51.412;5.432;2023-02-23T13:57:21;17.23;;;6.37;;
74074;SDS011;62428;51.412;5.432;2023-02-23T13:59:47;15.07;;;6.00;;
74074;SDS011;62428;51.412;5.432;2023-02-23T14:05:04;15.45;;;6.80;;
74074;SDS011;62428;51.412;5.432;2023-02-23T14:07:40;14.25;;;6.25;;
74074;SDS011;62428;51.412;5.432;2023-02-23T14:10:13;16.57;;;6.03;;
74074;SDS011;62428;51.412;5.432;2023-02-23T14:17:59;14.93;;;6.23;;
74074;SDS011;62428;51.412;5.432;2023-02-23T14:26:08;12.73;;;5.45;;
74074;SDS011;62428;51.412;5.432;2023-02-23T14:28:43;16.95;;;6.15;;
74074;SDS011;62428;51.412;5.432;2023-02-23T14:31:33;17.35;;;6.00;;
74074;SDS011;62428;51.412;5.432;2023-02-23T14:33:59;16.38;;;5.20;;
74074;SDS011;62428;51.412;5.432;2023-02-23T14:36:33;13.82;;;5.50;;
74074;SDS011;62428;51.412;5.432;2023-02-23T14:39:01;15.48;;;6.35;;
74074;SDS011;62428;51.412;5.432;2023-02-23T14:44:18;12.88;;;5.25;;
74074;SDS011;62428;51.412;5.432;2023-02-23T14:46:53;16.27;;;5.03;;
74074;SDS011;62428;51.412;5.432;2023-02-23T14:49:21;12.02;;;4.18;;
74074;SDS011;62428;51.412;5.432;2023-02-23T14:51:50;9.63;;;4.35;;
74074;SDS011;62428;51.412;5.432;2023-02-23T14:54:37;13.98;;;4.65;;
74074;SDS011;62428;51.412;5.432;2023-02-23T14:57:24;10.35;;;3.88;;
74074;SDS011;62428;51.412;5.432;2023-02-23T14:59:51;9.75;;;3.97;;
74074;SDS011;62428;51.412;5.432;2023-02-23T15:02:21;8.40;;;3.45;;
74074;SDS011;62428;51.412;5.432;2023-02-23T15:04:48;10.20;;;4.05;;
74074;SDS011;62428;51.412;5.432;2023-02-23T15:07:18;12.48;;;4.50;;
74074;SDS011;62428;51.412;5.432;2023-02-23T15:09:52;11.35;;;3.92;;
74074;SDS011;62428;51.412;5.432;2023-02-23T15:12:23;8.20;;;4.22;;
74074;SDS011;62428;51.412;5.432;2023-02-23T15:14:54;11.63;;;4.28;;
74074;SDS011;62428;51.412;5.432;2023-02-23T15:17:22;10.20;;;3.97;;
74074;SDS011;62428;51.412;5.432;2023-02-23T15:19:54;10.70;;;4.22;;
74074;SDS011;62428;51.412;5.432;2023-02-23T15:22:28;10.25;;;4.32;;
74074;SDS011;62428;51.412;5.432;2023-02-23T15:24:58;9.73;;;3.85;;
74074;SDS011;62428;51.412;5.432;2023-02-23T15:27:44;9.13;;;3.80;;
74074;SDS011;62428;51.412;5.432;2023-02-23T15:36:23;8.60;;;3.30;;
74074;SDS011;62428;51.412;5.432;2023-02-23T15:38:38;11.10;;;3.45;;
74074;SDS011;62428;51.412;5.432;2023-02-23T15:41:07;9.85;;;3.35;;
74074;SDS011;62428;51.412;5.432;2023-02-23T15:43:40;7.65;;;3.40;;
74074;SDS011;62428;51.412;5.432;2023-02-23T15:46:06;8.32;;;2.90;;
74074;SDS011;62428;51.412;5.432;2023-02-23T15:48:52;8.10;;;3.28;;
74074;SDS011;62428;51.412;5.432;2023-02-23T15:51:30;8.82;;;3.70;;
74074;SDS011;62428;51.412;5.432;2023-02-23T15:53:57;8.95;;;3.35;;
74074;SDS011;62428;51.412;5.432;2023-02-23T15:56:25;9.45;;;3.67;;
74074;SDS011;62428;51.412;5.432;2023-02-23T15:58:53;13.05;;;4.38;;
74074;SDS011;62428;51.412;5.432;2023-02-23T16:01:22;9.80;;;4.30;;
74074;SDS011;62428;51.412;5.432;2023-02-23T16:03:58;11.27;;;4.25;;
74074;SDS011;62428;51.412;5.432;2023-02-23T16:06:30;9.50;;;3.90;;
74074;SDS011;62428;51.412;5.432;2023-02-23T16:08:59;10.27;;;4.22;;
74074;SDS011;62428;51.412;5.432;2023-02-23T16:12:01;11.43;;;4.50;;
74074;SDS011;62428;51.412;5.432;2023-02-23T16:14:45;10.52;;;4.65;;
74074;SDS011;62428;51.412;5.432;2023-02-23T16:17:27;11.50;;;4.30;;
74074;SDS011;62428;51.412;5.432;2023-02-23T16:19:55;10.82;;;4.45;;
74074;SDS011;62428;51.412;5.432;2023-02-23T16:22:31;10.57;;;4.00;;
74074;SDS011;62428;51.412;5.432;2023-02-23T16:25:01;9.65;;;4.32;;
74074;SDS011;62428;51.412;5.432;2023-02-23T16:27:29;12.80;;;4.07;;
74074;SDS011;62428;51.412;5.432;2023-02-23T16:33:08;15.73;;;4.65;;
74074;SDS011;62428;51.412;5.432;2023-02-23T16:35:43;12.32;;;4.47;;
74074;SDS011;62428;51.412;5.432;2023-02-23T16:38:11;12.40;;;4.20;;
74074;SDS011;62428;51.412;5.432;2023-02-23T16:41:03;11.50;;;4.00;;
74074;SDS011;62428;51.412;5.432;2023-02-23T16:43:31;13.40;;;4.32;;
74074;SDS011;62428;51.412;5.432;2023-02-23T16:45:59;14.82;;;4.05;;
74074;SDS011;62428;51.412;5.432;2023-02-23T16:48:25;10.85;;;3.53;;
74074;SDS011;62428;51.412;5.432;2023-02-23T16:50:50;10.87;;;3.40;;
74074;SDS011;62428;51.412;5.432;2023-02-23T16:53:15;11.97;;;4.20;;
74074;SDS011;62428;51.412;5.432;2023-02-23T16:55:59;10.45;;;4.07;;
74074;SDS011;62428;51.412;5.432;2023-02-23T16:58:25;13.95;;;4.13;;
74074;SDS011;62428;51.412;5.432;2023-02-23T17:00:53;11.73;;;4.43;;
74074;SDS011;62428;51.412;5.432;2023-02-23T17:03:23;13.50;;;4.63;;
74074;SDS011;62428;51.412;5.432;2023-02-23T17:05:50;12.48;;;4.43;;
74074;SDS011;62428;51.412;5.432;2023-02-23T17:08:16;11.32;;;4.00;;
74074;SDS011;62428;51.412;5.432;2023-02-23T17:10:42;13.27;;;4.73;;
74074;SDS011;62428;51.412;5.432;2023-02-23T17:13:18;18.45;;;4.60;;
74074;SDS011;62428;51.412;5.432;2023-02-23T17:15:45;14.63;;;4.38;;
74074;SDS011;62428;51.412;5.432;2023-02-23T17:18:16;11.85;;;4.97;;